Terminal Aerodrome Forecast
Issued by NWS Central Illinois

Home | Current Version | Previous Version | Text Only | Print | Product List | Glossary On
Versions: 1 2 3 4 5 6 7 8 9 10 11 12 13 14 15 16 17 18 19 20
000
FTUS43 KILX 300642 AAA
TAFPIA
TAF AMD
KPIA 300642Z 3007/0106 36006KT P6SM BKN013
     FM300800 01007KT P6SM SCT007 BKN011
     FM301100 36009KT P6SM VCSH OVC008
     FM301600 01011KT P6SM VCSH OVC012
     FM010100 03004KT 5SM BR BKN006 OVC012=

USA.gov is the U.S. government's official web portal to all federal, state and local government web resources and services.